Airfield :
LOGIN :

Register | Disclaimer

   EN    FR    IT 

 










Legend :    VFR   Marginal VFR   IFR   Intensive IFR   Very Intensive IFR
Visi :
Ceiling :
>= 8 km
>= 3000ft
5 to 8 km
1000 to 3000 ft
1500m to 5 km
500 to 1000 ft
800 to 1500m
200 to 500 ft
< 800m
< 200 ft
Symbols :   Thunderstorms  Fog  Heavy snow  Heavy precipitations  Wind > 20 kt
SIGMETs :     Misc.  Thunderstorms  Icing  Turbulence  Mountain Waves  Volcanic Ashes







- Airport Elevation : 220 ft
- IATA code : CWL
- Download approach charts


EGFF - Cardiff Rhoose

CURRENT METAR :
  • 242050Z AUTO 27012KT 9999 FEW007 SCT013 BKN018 09/09 Q1010

EXPIRED METARs :
  • 242020Z 28013KT 9999 VCSH FEW007 BKN016 09/08 Q1009
  • 241950Z 27015KT 9999 VCSH SCT008 BKN015 09/09 Q1009
  • 241920Z 27019KT 7000 -RA FEW005 SCT008 BKN015 10/10 Q1008
  • 241850Z 26015KT 7000 -RA FEW006 SCT011 BKN015 11/11 Q1008 RERA
  • 241820Z 25013KT 5000 -SHRA FEW004TCU BKN007 OVC012 11/11 Q1008 RERA REDZ

TAF TAF EGFF
Valid from the 24 at 18:00 until the 25 at 18:00 UTC


241656Z 2418/2518 25012KT 9999 BKN020
TEMPO 2418/2503 7000 -RA BKN012
PROB40
TEMPO 2418/2502 2000 RADZ BKN004
PROB30
TEMPO 2418/2420 24015G25KT
TEMPO 2507/2518 27015G25KT 7000 SHRA
PROB30
TEMPO 2512/2518 4000 +TSRA BKN014CB
ATIS : +44 1446 729 319
No reported NOTAMs for that airfield.



MET'MAP, your aeronautical weather chart ! - Copyright ORBIFLY December 2007 - Disclaimer

ORBIFLY MET'MAP TEAM :

Programming & Development : Alexandra Zaïnal
Concept & Development : Baudouin d'Aumeries
Co-Development & Prog : Marc-Olivier Méhu
Technical & hardware support : Manuel Goepfert

Contact : metmap@orbifly.com




SOURCES & CREDITS :

   NOAA